Terminal Aerodrome Forecast
Issued by NWS Amarillo, TX

Home | Current Version | Previous Version | Text Only | Print | Product List | Glossary On
Versions: 1 2 3 4 5 6 7 8 9 10 11 12 13 14 15 16 17 18 19 20 21 22 23 24 25 26 27 28 29 30
000
FTUS44 KAMA 041300 AAA
TAFAMA
TAF AMD
KAMA 041310Z 0413/0512 04014KT 3SM -FZDZ OVC008
     FM041400 04020G30KT 4SM -SN BR OVC006
     FM042200 02020G30KT P6SM -SN OVC008
     FM050100 01010KT P6SM SCT010 OVC060
     FM050800 34006KT P6SM SCT080 SCT200=

USA.gov is the U.S. government's official web portal to all federal, state and local government web resources and services.